sensor_id;sensor_type;location;lat;lon;timestamp;P1;durP1;ratioP1;P2;durP2;ratioP2
65092;SDS011;52025;50.288;2.794;2022-07-22T04:35:40;4.95;;;1.63;;
65092;SDS011;52025;50.288;2.794;2022-07-22T04:38:06;5.53;;;1.85;;
65092;SDS011;52025;50.288;2.794;2022-07-22T04:40:31;5.70;;;1.47;;
65092;SDS011;52025;50.288;2.794;2022-07-22T04:42:56;4.40;;;1.77;;
65092;SDS011;52025;50.288;2.794;2022-07-22T04:45:21;5.95;;;1.55;;
65092;SDS011;52025;50.288;2.794;2022-07-22T04:47:47;5.85;;;1.58;;
65092;SDS011;52025;50.288;2.794;2022-07-22T04:50:12;5.67;;;1.70;;
65092;SDS011;52025;50.288;2.794;2022-07-22T04:52:37;5.18;;;1.55;;
65092;SDS011;52025;50.288;2.794;2022-07-22T04:55:02;5.43;;;1.60;;
65092;SDS011;52025;50.288;2.794;2022-07-22T04:57:28;4.13;;;1.63;;
65092;SDS011;52025;50.288;2.794;2022-07-22T04:59:53;6.32;;;1.50;;
65092;SDS011;52025;50.288;2.794;2022-07-22T05:02:19;6.30;;;2.00;;
65092;SDS011;52025;50.288;2.794;2022-07-22T05:04:44;6.15;;;1.58;;
65092;SDS011;52025;50.288;2.794;2022-07-22T05:07:09;4.47;;;1.42;;
65092;SDS011;52025;50.288;2.794;2022-07-22T05:09:35;2.00;;;1.10;;
65092;SDS011;52025;50.288;2.794;2022-07-22T05:12:00;2.17;;;0.73;;
65092;SDS011;52025;50.288;2.794;2022-07-22T05:14:26;1.58;;;0.70;;
65092;SDS011;52025;50.288;2.794;2022-07-22T05:16:51;2.28;;;0.70;;
65092;SDS011;52025;50.288;2.794;2022-07-22T05:19:16;3.15;;;0.90;;
65092;SDS011;52025;50.288;2.794;2022-07-22T05:21:41;2.05;;;0.50;;
65092;SDS011;52025;50.288;2.794;2022-07-22T05:24:07;1.85;;;0.70;;
65092;SDS011;52025;50.288;2.794;2022-07-22T05:26:32;1.90;;;0.90;;
65092;SDS011;52025;50.288;2.794;2022-07-22T05:28:58;1.83;;;0.70;;
65092;SDS011;52025;50.288;2.794;2022-07-22T05:31:23;0.80;;;0.35;;
65092;SDS011;52025;50.288;2.794;2022-07-22T05:33:48;0.75;;;0.40;;
65092;SDS011;52025;50.288;2.794;2022-07-22T05:36:14;2.38;;;0.68;;
65092;SDS011;52025;50.288;2.794;2022-07-22T05:38:39;1.45;;;0.60;;
65092;SDS011;52025;50.288;2.794;2022-07-22T05:41:04;6.55;;;1.83;;
65092;SDS011;52025;50.288;2.794;2022-07-22T05:43:30;4.47;;;1.30;;
65092;SDS011;52025;50.288;2.794;2022-07-22T05:45:55;7.32;;;1.83;;
65092;SDS011;52025;50.288;2.794;2022-07-22T05:48:20;4.40;;;1.50;;
65092;SDS011;52025;50.288;2.794;2022-07-22T05:50:45;5.43;;;2.05;;
65092;SDS011;52025;50.288;2.794;2022-07-22T05:53:11;4.47;;;1.42;;
65092;SDS011;52025;50.288;2.794;2022-07-22T05:55:36;5.93;;;1.60;;
65092;SDS011;52025;50.288;2.794;2022-07-22T05:58:01;5.10;;;1.30;;
65092;SDS011;52025;50.288;2.794;2022-07-22T06:00:27;5.88;;;2.10;;
65092;SDS011;52025;50.288;2.794;2022-07-22T06:02:52;6.18;;;1.90;;
65092;SDS011;52025;50.288;2.794;2022-07-22T06:05:18;4.80;;;1.60;;
65092;SDS011;52025;50.288;2.794;2022-07-22T06:07:43;5.35;;;1.58;;
65092;SDS011;52025;50.288;2.794;2022-07-22T06:10:08;5.28;;;1.67;;
65092;SDS011;52025;50.288;2.794;2022-07-22T06:12:33;3.92;;;1.25;;
65092;SDS011;52025;50.288;2.794;2022-07-22T06:14:59;7.25;;;1.88;;
65092;SDS011;52025;50.288;2.794;2022-07-22T06:17:24;5.70;;;1.73;;
65092;SDS011;52025;50.288;2.794;2022-07-22T06:19:49;7.57;;;2.03;;
65092;SDS011;52025;50.288;2.794;2022-07-22T06:22:14;4.13;;;1.55;;
65092;SDS011;52025;50.288;2.794;2022-07-22T06:24:42;4.07;;;1.67;;
65092;SDS011;52025;50.288;2.794;2022-07-22T06:27:07;4.28;;;1.63;;
65092;SDS011;52025;50.288;2.794;2022-07-22T06:29:33;5.88;;;1.70;;
65092;SDS011;52025;50.288;2.794;2022-07-22T06:31:58;6.13;;;1.85;;
65092;SDS011;52025;50.288;2.794;2022-07-22T06:34:24;4.72;;;1.90;;
65092;SDS011;52025;50.288;2.794;2022-07-22T06:36:49;7.43;;;2.15;;
65092;SDS011;52025;50.288;2.794;2022-07-22T06:39:15;3.80;;;1.20;;
65092;SDS011;52025;50.288;2.794;2022-07-22T06:41:41;5.00;;;1.80;;
65092;SDS011;52025;50.288;2.794;2022-07-22T06:44:06;5.20;;;1.80;;
65092;SDS011;52025;50.288;2.794;2022-07-22T06:46:31;3.92;;;1.60;;
65092;SDS011;52025;50.288;2.794;2022-07-22T06:48:57;4.22;;;1.40;;
65092;SDS011;52025;50.288;2.794;2022-07-22T06:51:22;3.58;;;1.38;;
65092;SDS011;52025;50.288;2.794;2022-07-22T06:53:47;3.38;;;1.30;;
65092;SDS011;52025;50.288;2.794;2022-07-22T06:56:13;3.85;;;1.42;;
65092;SDS011;52025;50.288;2.794;2022-07-22T06:58:38;5.60;;;1.98;;
65092;SDS011;52025;50.288;2.794;2022-07-22T07:01:03;5.95;;;1.60;;
65092;SDS011;52025;50.288;2.794;2022-07-22T07:03:28;4.57;;;1.45;;
65092;SDS011;52025;50.288;2.794;2022-07-22T07:05:54;3.50;;;1.15;;
65092;SDS011;52025;50.288;2.794;2022-07-22T07:08:19;2.13;;;1.05;;
65092;SDS011;52025;50.288;2.794;2022-07-22T07:10:44;3.97;;;1.20;;
65092;SDS011;52025;50.288;2.794;2022-07-22T07:13:09;2.53;;;0.95;;
65092;SDS011;52025;50.288;2.794;2022-07-22T07:15:35;5.05;;;1.25;;
65092;SDS011;52025;50.288;2.794;2022-07-22T07:18:00;3.05;;;1.20;;
65092;SDS011;52025;50.288;2.794;2022-07-22T07:20:25;2.35;;;0.90;;
65092;SDS011;52025;50.288;2.794;2022-07-22T07:22:50;5.93;;;1.33;;
65092;SDS011;52025;50.288;2.794;2022-07-22T07:25:16;2.20;;;1.20;;
65092;SDS011;52025;50.288;2.794;2022-07-22T07:27:42;3.13;;;1.17;;
65092;SDS011;52025;50.288;2.794;2022-07-22T07:30:07;1.67;;;0.90;;
65092;SDS011;52025;50.288;2.794;2022-07-22T07:32:34;2.47;;;0.85;;
65092;SDS011;52025;50.288;2.794;2022-07-22T07:34:59;2.65;;;1.20;;
65092;SDS011;52025;50.288;2.794;2022-07-22T07:37:24;3.08;;;1.00;;
65092;SDS011;52025;50.288;2.794;2022-07-22T07:39:50;1.43;;;0.70;;
65092;SDS011;52025;50.288;2.794;2022-07-22T07:42:15;3.80;;;1.27;;
65092;SDS011;52025;50.288;2.794;2022-07-22T07:44:41;2.58;;;0.93;;
65092;SDS011;52025;50.288;2.794;2022-07-22T07:47:06;3.05;;;1.10;;
65092;SDS011;52025;50.288;2.794;2022-07-22T07:49:31;4.03;;;1.55;;
65092;SDS011;52025;50.288;2.794;2022-07-22T07:51:56;4.35;;;1.65;;
65092;SDS011;52025;50.288;2.794;2022-07-22T07:54:22;5.77;;;1.70;;
65092;SDS011;52025;50.288;2.794;2022-07-22T07:56:47;4.65;;;1.42;;
65092;SDS011;52025;50.288;2.794;2022-07-22T07:59:12;4.45;;;1.75;;
65092;SDS011;52025;50.288;2.794;2022-07-22T08:01:38;2.40;;;1.17;;
65092;SDS011;52025;50.288;2.794;2022-07-22T08:04:03;4.82;;;1.80;;
65092;SDS011;52025;50.288;2.794;2022-07-22T08:06:28;5.00;;;1.70;;
65092;SDS011;52025;50.288;2.794;2022-07-22T08:08:54;5.57;;;1.80;;
65092;SDS011;52025;50.288;2.794;2022-07-22T08:11:19;4.07;;;1.55;;
65092;SDS011;52025;50.288;2.794;2022-07-22T08:13:44;4.85;;;1.50;;
65092;SDS011;52025;50.288;2.794;2022-07-22T08:16:09;4.95;;;1.73;;
65092;SDS011;52025;50.288;2.794;2022-07-22T08:18:35;6.38;;;2.28;;
65092;SDS011;52025;50.288;2.794;2022-07-22T08:21:01;4.18;;;1.63;;
65092;SDS011;52025;50.288;2.794;2022-07-22T08:23:27;6.90;;;2.20;;
65092;SDS011;52025;50.288;2.794;2022-07-22T08:25:52;4.22;;;1.58;;
65092;SDS011;52025;50.288;2.794;2022-07-22T08:28:17;2.30;;;1.23;;
65092;SDS011;52025;50.288;2.794;2022-07-22T08:30:43;5.72;;;1.40;;
65092;SDS011;52025;50.288;2.794;2022-07-22T08:33:08;1.48;;;0.75;;
65092;SDS011;52025;50.288;2.794;2022-07-22T08:35:34;1.83;;;0.95;;
65092;SDS011;52025;50.288;2.794;2022-07-22T08:37:59;3.33;;;1.40;;
65092;SDS011;52025;50.288;2.794;2022-07-22T08:40:24;3.88;;;1.55;;
65092;SDS011;52025;50.288;2.794;2022-07-22T08:42:50;2.15;;;0.98;;
65092;SDS011;52025;50.288;2.794;2022-07-22T08:45:16;4.78;;;1.80;;
65092;SDS011;52025;50.288;2.794;2022-07-22T08:47:43;3.53;;;1.65;;
65092;SDS011;52025;50.288;2.794;2022-07-22T08:50:09;4.22;;;1.70;;
65092;SDS011;52025;50.288;2.794;2022-07-22T08:52:34;4.65;;;1.80;;
65092;SDS011;52025;50.288;2.794;2022-07-22T08:55:01;3.55;;;1.35;;
65092;SDS011;52025;50.288;2.794;2022-07-22T08:57:27;3.03;;;1.30;;
65092;SDS011;52025;50.288;2.794;2022-07-22T08:59:53;2.33;;;1.25;;
65092;SDS011;52025;50.288;2.794;2022-07-22T09:02:18;4.32;;;1.40;;
65092;SDS011;52025;50.288;2.794;2022-07-22T09:04:58;2.28;;;0.88;;
65092;SDS011;52025;50.288;2.794;2022-07-22T09:07:28;1.80;;;0.70;;
65092;SDS011;52025;50.288;2.794;2022-07-22T09:09:53;1.50;;;0.90;;
65092;SDS011;52025;50.288;2.794;2022-07-22T09:12:19;1.83;;;0.77;;
65092;SDS011;52025;50.288;2.794;2022-07-22T09:14:48;3.08;;;1.25;;
65092;SDS011;52025;50.288;2.794;2022-07-22T09:19:48;4.57;;;2.10;;
65092;SDS011;52025;50.288;2.794;2022-07-22T09:22:13;2.33;;;1.30;;
65092;SDS011;52025;50.288;2.794;2022-07-22T09:24:38;1.90;;;0.80;;
65092;SDS011;52025;50.288;2.794;2022-07-22T09:27:04;4.05;;;1.30;;
65092;SDS011;52025;50.288;2.794;2022-07-22T09:29:32;3.67;;;1.40;;
65092;SDS011;52025;50.288;2.794;2022-07-22T09:31:57;3.10;;;1.38;;
65092;SDS011;52025;50.288;2.794;2022-07-22T09:34:30;2.80;;;1.17;;
65092;SDS011;52025;50.288;2.794;2022-07-22T09:36:56;3.10;;;1.23;;
65092;SDS011;52025;50.288;2.794;2022-07-22T09:39:25;3.05;;;1.30;;
65092;SDS011;52025;50.288;2.794;2022-07-22T09:42:01;1.92;;;0.85;;
65092;SDS011;52025;50.288;2.794;2022-07-22T09:44:27;1.45;;;0.80;;
65092;SDS011;52025;50.288;2.794;2022-07-22T09:46:52;2.72;;;0.98;;
65092;SDS011;52025;50.288;2.794;2022-07-22T09:49:30;3.90;;;1.52;;
65092;SDS011;52025;50.288;2.794;2022-07-22T09:51:56;3.45;;;1.17;;
65092;SDS011;52025;50.288;2.794;2022-07-22T09:54:21;2.55;;;1.48;;
65092;SDS011;52025;50.288;2.794;2022-07-22T09:56:47;1.75;;;0.90;;
65092;SDS011;52025;50.288;2.794;2022-07-22T09:59:12;1.67;;;1.00;;
65092;SDS011;52025;50.288;2.794;2022-07-22T10:01:37;3.30;;;1.20;;
65092;SDS011;52025;50.288;2.794;2022-07-22T10:04:03;1.88;;;1.05;;
65092;SDS011;52025;50.288;2.794;2022-07-22T10:06:30;2.03;;;1.10;;
65092;SDS011;52025;50.288;2.794;2022-07-22T10:08:55;5.20;;;1.58;;
65092;SDS011;52025;50.288;2.794;2022-07-22T10:11:21;2.58;;;1.17;;
65092;SDS011;52025;50.288;2.794;2022-07-22T10:13:46;4.10;;;1.50;;
65092;SDS011;52025;50.288;2.794;2022-07-22T10:16:12;3.38;;;1.27;;
65092;SDS011;52025;50.288;2.794;2022-07-22T10:18:37;2.22;;;1.30;;
65092;SDS011;52025;50.288;2.794;2022-07-22T10:21:04;2.42;;;0.93;;
65092;SDS011;52025;50.288;2.794;2022-07-22T10:23:29;3.65;;;1.60;;
65092;SDS011;52025;50.288;2.794;2022-07-22T10:25:56;1.93;;;0.90;;
65092;SDS011;52025;50.288;2.794;2022-07-22T10:30:48;3.23;;;1.30;;
65092;SDS011;52025;50.288;2.794;2022-07-22T10:33:14;2.75;;;1.00;;
65092;SDS011;52025;50.288;2.794;2022-07-22T10:38:09;3.08;;;1.40;;
65092;SDS011;52025;50.288;2.794;2022-07-22T10:43:12;3.15;;;1.27;;
65092;SDS011;52025;50.288;2.794;2022-07-22T10:45:45;4.13;;;1.77;;
65092;SDS011;52025;50.288;2.794;2022-07-22T10:48:12;2.63;;;1.10;;
65092;SDS011;52025;50.288;2.794;2022-07-22T10:50:38;2.58;;;1.10;;
65092;SDS011;52025;50.288;2.794;2022-07-22T10:53:11;2.17;;;1.10;;
65092;SDS011;52025;50.288;2.794;2022-07-22T10:55:37;2.50;;;1.20;;
65092;SDS011;52025;50.288;2.794;2022-07-22T11:00:47;1.73;;;1.00;;
65092;SDS011;52025;50.288;2.794;2022-07-22T11:03:13;1.88;;;1.20;;
65092;SDS011;52025;50.288;2.794;2022-07-22T11:05:48;2.60;;;1.15;;
65092;SDS011;52025;50.288;2.794;2022-07-22T11:08:13;3.10;;;1.47;;
65092;SDS011;52025;50.288;2.794;2022-07-22T11:10:46;6.13;;;2.97;;
65092;SDS011;52025;50.288;2.794;2022-07-22T11:13:11;5.17;;;2.07;;
65092;SDS011;52025;50.288;2.794;2022-07-22T11:15:36;2.70;;;1.30;;
65092;SDS011;52025;50.288;2.794;2022-07-22T11:18:02;3.97;;;1.90;;
65092;SDS011;52025;50.288;2.794;2022-07-22T11:20:27;4.57;;;1.98;;
65092;SDS011;52025;50.288;2.794;2022-07-22T11:22:54;4.55;;;1.98;;
65092;SDS011;52025;50.288;2.794;2022-07-22T11:25:19;4.30;;;1.73;;
65092;SDS011;52025;50.288;2.794;2022-07-22T11:27:50;4.20;;;1.95;;
65092;SDS011;52025;50.288;2.794;2022-07-22T11:30:16;3.65;;;1.90;;
65092;SDS011;52025;50.288;2.794;2022-07-22T11:32:42;5.63;;;2.05;;
65092;SDS011;52025;50.288;2.794;2022-07-22T11:35:11;3.15;;;1.55;;
65092;SDS011;52025;50.288;2.794;2022-07-22T11:37:36;5.05;;;2.25;;
65092;SDS011;52025;50.288;2.794;2022-07-22T11:40:03;4.25;;;1.80;;
65092;SDS011;52025;50.288;2.794;2022-07-22T11:42:29;3.95;;;1.98;;
65092;SDS011;52025;50.288;2.794;2022-07-22T11:44:54;4.13;;;1.80;;
65092;SDS011;52025;50.288;2.794;2022-07-22T11:47:20;4.32;;;2.00;;
65092;SDS011;52025;50.288;2.794;2022-07-22T11:49:45;2.75;;;1.50;;
65092;SDS011;52025;50.288;2.794;2022-07-22T11:52:11;3.58;;;1.80;;
65092;SDS011;52025;50.288;2.794;2022-07-22T11:54:39;4.07;;;1.77;;
65092;SDS011;52025;50.288;2.794;2022-07-22T11:57:05;4.68;;;2.20;;
65092;SDS011;52025;50.288;2.794;2022-07-22T11:59:30;2.83;;;1.52;;
65092;SDS011;52025;50.288;2.794;2022-07-22T12:01:57;4.45;;;1.90;;
65092;SDS011;52025;50.288;2.794;2022-07-22T12:04:24;4.47;;;2.25;;
65092;SDS011;52025;50.288;2.794;2022-07-22T12:06:49;4.18;;;2.10;;
65092;SDS011;52025;50.288;2.794;2022-07-22T12:09:16;4.85;;;1.75;;
65092;SDS011;52025;50.288;2.794;2022-07-22T12:11:43;4.57;;;1.92;;
65092;SDS011;52025;50.288;2.794;2022-07-22T12:14:09;2.90;;;1.50;;
65092;SDS011;52025;50.288;2.794;2022-07-22T12:16:35;4.03;;;1.75;;
65092;SDS011;52025;50.288;2.794;2022-07-22T12:21:30;5.72;;;2.45;;
65092;SDS011;52025;50.288;2.794;2022-07-22T12:24:05;4.57;;;2.30;;
65092;SDS011;52025;50.288;2.794;2022-07-22T12:26:42;3.95;;;1.83;;
65092;SDS011;52025;50.288;2.794;2022-07-22T12:29:50;3.53;;;1.67;;
65092;SDS011;52025;50.288;2.794;2022-07-22T12:31:58;4.60;;;2.00;;
65092;SDS011;52025;50.288;2.794;2022-07-22T12:34:36;4.35;;;1.75;;
65092;SDS011;52025;50.288;2.794;2022-07-22T12:39:36;5.05;;;1.90;;
65092;SDS011;52025;50.288;2.794;2022-07-22T12:42:01;3.22;;;1.38;;
65092;SDS011;52025;50.288;2.794;2022-07-22T12:44:27;3.22;;;1.88;;
65092;SDS011;52025;50.288;2.794;2022-07-22T12:46:55;1.65;;;0.90;;
65092;SDS011;52025;50.288;2.794;2022-07-22T12:49:24;1.45;;;0.80;;
65092;SDS011;52025;50.288;2.794;2022-07-22T12:52:06;1.45;;;0.77;;
65092;SDS011;52025;50.288;2.794;2022-07-22T12:54:32;4.15;;;1.33;;
65092;SDS011;52025;50.288;2.794;2022-07-22T12:56:57;3.10;;;1.50;;
65092;SDS011;52025;50.288;2.794;2022-07-22T12:59:22;4.63;;;2.15;;
65092;SDS011;52025;50.288;2.794;2022-07-22T13:01:48;2.47;;;1.47;;
65092;SDS011;52025;50.288;2.794;2022-07-22T13:04:13;3.53;;;1.48;;
65092;SDS011;52025;50.288;2.794;2022-07-22T13:06:39;2.67;;;1.25;;
65092;SDS011;52025;50.288;2.794;2022-07-22T13:09:04;6.72;;;1.75;;
65092;SDS011;52025;50.288;2.794;2022-07-22T13:11:30;2.43;;;1.10;;
65092;SDS011;52025;50.288;2.794;2022-07-22T13:13:55;2.60;;;1.38;;
65092;SDS011;52025;50.288;2.794;2022-07-22T13:16:20;3.60;;;1.53;;
65092;SDS011;52025;50.288;2.794;2022-07-22T13:18:46;4.97;;;2.00;;
65092;SDS011;52025;50.288;2.794;2022-07-22T13:21:11;3.30;;;1.40;;
65092;SDS011;52025;50.288;2.794;2022-07-22T13:23:36;4.60;;;2.00;;
65092;SDS011;52025;50.288;2.794;2022-07-22T13:26:01;3.55;;;1.45;;
65092;SDS011;52025;50.288;2.794;2022-07-22T13:28:27;3.95;;;2.03;;
65092;SDS011;52025;50.288;2.794;2022-07-22T13:30:52;3.13;;;1.67;;
65092;SDS011;52025;50.288;2.794;2022-07-22T13:33:17;3.10;;;1.70;;
65092;SDS011;52025;50.288;2.794;2022-07-22T13:35:43;3.35;;;2.13;;
65092;SDS011;52025;50.288;2.794;2022-07-22T13:38:08;3.38;;;1.73;;
65092;SDS011;52025;50.288;2.794;2022-07-22T13:40:33;3.13;;;1.70;;
65092;SDS011;52025;50.288;2.794;2022-07-22T13:42:58;2.80;;;1.53;;
65092;SDS011;52025;50.288;2.794;2022-07-22T13:45:24;2.00;;;1.10;;
65092;SDS011;52025;50.288;2.794;2022-07-22T13:47:49;3.65;;;1.83;;
65092;SDS011;52025;50.288;2.794;2022-07-22T13:50:14;5.22;;;2.05;;
65092;SDS011;52025;50.288;2.794;2022-07-22T13:52:39;4.63;;;2.33;;
65092;SDS011;52025;50.288;2.794;2022-07-22T13:55:05;4.25;;;2.17;;
65092;SDS011;52025;50.288;2.794;2022-07-22T13:57:31;4.15;;;2.00;;
65092;SDS011;52025;50.288;2.794;2022-07-22T13:59:56;3.55;;;2.08;;
65092;SDS011;52025;50.288;2.794;2022-07-22T14:02:21;4.90;;;2.15;;
65092;SDS011;52025;50.288;2.794;2022-07-22T14:04:47;3.87;;;2.00;;
65092;SDS011;52025;50.288;2.794;2022-07-22T14:07:12;4.50;;;2.43;;
65092;SDS011;52025;50.288;2.794;2022-07-22T14:09:37;4.93;;;2.20;;
65092;SDS011;52025;50.288;2.794;2022-07-22T14:12:02;6.35;;;2.10;;
65092;SDS011;52025;50.288;2.794;2022-07-22T14:14:28;4.00;;;1.90;;
65092;SDS011;52025;50.288;2.794;2022-07-22T14:16:53;4.70;;;2.22;;
65092;SDS011;52025;50.288;2.794;2022-07-22T14:19:18;4.90;;;2.25;;
65092;SDS011;52025;50.288;2.794;2022-07-22T14:21:44;4.78;;;2.55;;
65092;SDS011;52025;50.288;2.794;2022-07-22T14:24:10;5.07;;;2.45;;
65092;SDS011;52025;50.288;2.794;2022-07-22T14:26:36;6.97;;;3.70;;
65092;SDS011;52025;50.288;2.794;2022-07-22T14:29:01;9.20;;;4.38;;
65092;SDS011;52025;50.288;2.794;2022-07-22T14:31:27;6.35;;;3.67;;
65092;SDS011;52025;50.288;2.794;2022-07-22T14:33:53;5.78;;;2.92;;
65092;SDS011;52025;50.288;2.794;2022-07-22T14:36:21;3.92;;;2.45;;
65092;SDS011;52025;50.288;2.794;2022-07-22T14:38:46;6.35;;;3.25;;
65092;SDS011;52025;50.288;2.794;2022-07-22T14:41:12;5.68;;;2.75;;
65092;SDS011;52025;50.288;2.794;2022-07-22T14:43:37;5.90;;;3.17;;
65092;SDS011;52025;50.288;2.794;2022-07-22T14:46:03;6.35;;;2.83;;
65092;SDS011;52025;50.288;2.794;2022-07-22T14:48:29;6.90;;;2.95;;
65092;SDS011;52025;50.288;2.794;2022-07-22T14:50:54;6.47;;;2.65;;
65092;SDS011;52025;50.288;2.794;2022-07-22T14:53:20;5.10;;;2.45;;
65092;SDS011;52025;50.288;2.794;2022-07-22T14:55:45;6.87;;;2.83;;
65092;SDS011;52025;50.288;2.794;2022-07-22T14:58:10;4.07;;;2.38;;
65092;SDS011;52025;50.288;2.794;2022-07-22T15:00:36;7.50;;;2.53;;
65092;SDS011;52025;50.288;2.794;2022-07-22T15:03:01;4.00;;;2.25;;
65092;SDS011;52025;50.288;2.794;2022-07-22T15:05:26;5.25;;;2.30;;
65092;SDS011;52025;50.288;2.794;2022-07-22T15:07:52;5.50;;;2.20;;
65092;SDS011;52025;50.288;2.794;2022-07-22T15:10:17;5.20;;;2.50;;
65092;SDS011;52025;50.288;2.794;2022-07-22T15:12:42;5.78;;;3.38;;
65092;SDS011;52025;50.288;2.794;2022-07-22T15:15:08;6.68;;;3.03;;
65092;SDS011;52025;50.288;2.794;2022-07-22T15:17:34;5.47;;;2.80;;
65092;SDS011;52025;50.288;2.794;2022-07-22T15:19:59;4.95;;;2.80;;
65092;SDS011;52025;50.288;2.794;2022-07-22T15:22:24;6.00;;;3.17;;
65092;SDS011;52025;50.288;2.794;2022-07-22T15:24:50;5.38;;;3.10;;
65092;SDS011;52025;50.288;2.794;2022-07-22T15:27:15;6.60;;;3.50;;
65092;SDS011;52025;50.288;2.794;2022-07-22T15:29:40;4.95;;;3.03;;
65092;SDS011;52025;50.288;2.794;2022-07-22T15:32:06;5.28;;;3.83;;
65092;SDS011;52025;50.288;2.794;2022-07-22T15:34:31;7.28;;;5.13;;
65092;SDS011;52025;50.288;2.794;2022-07-22T15:36:58;7.00;;;4.60;;
65092;SDS011;52025;50.288;2.794;2022-07-22T15:39:23;6.97;;;4.28;;
65092;SDS011;52025;50.288;2.794;2022-07-22T15:41:48;5.33;;;3.53;;
65092;SDS011;52025;50.288;2.794;2022-07-22T15:44:14;5.77;;;3.53;;
65092;SDS011;52025;50.288;2.794;2022-07-22T15:46:39;7.63;;;4.20;;
65092;SDS011;52025;50.288;2.794;2022-07-22T15:49:05;6.55;;;3.53;;
65092;SDS011;52025;50.288;2.794;2022-07-22T15:51:30;8.35;;;3.90;;
65092;SDS011;52025;50.288;2.794;2022-07-22T15:53:55;7.60;;;3.63;;
65092;SDS011;52025;50.288;2.794;2022-07-22T15:56:21;6.75;;;3.42;;
65092;SDS011;52025;50.288;2.794;2022-07-22T15:58:46;6.18;;;3.42;;
65092;SDS011;52025;50.288;2.794;2022-07-22T16:01:30;6.80;;;3.38;;
65092;SDS011;52025;50.288;2.794;2022-07-22T16:03:56;5.97;;;3.40;;
65092;SDS011;52025;50.288;2.794;2022-07-22T16:06:21;7.57;;;3.92;;
65092;SDS011;52025;50.288;2.794;2022-07-22T16:08:46;8.05;;;4.07;;
65092;SDS011;52025;50.288;2.794;2022-07-22T16:11:11;7.32;;;3.95;;
65092;SDS011;52025;50.288;2.794;2022-07-22T16:13:38;4.57;;;2.92;;
65092;SDS011;52025;50.288;2.794;2022-07-22T16:16:03;5.20;;;2.85;;
65092;SDS011;52025;50.288;2.794;2022-07-22T16:18:29;5.50;;;3.28;;
65092;SDS011;52025;50.288;2.794;2022-07-22T16:20:54;7.28;;;3.92;;
65092;SDS011;52025;50.288;2.794;2022-07-22T16:23:20;5.60;;;3.60;;
65092;SDS011;52025;50.288;2.794;2022-07-22T16:25:45;7.05;;;4.07;;
65092;SDS011;52025;50.288;2.794;2022-07-22T16:28:10;8.65;;;4.15;;
65092;SDS011;52025;50.288;2.794;2022-07-22T16:30:36;6.10;;;3.70;;
65092;SDS011;52025;50.288;2.794;2022-07-22T16:33:01;5.57;;;3.08;;
65092;SDS011;52025;50.288;2.794;2022-07-22T16:35:26;5.97;;;3.30;;
65092;SDS011;52025;50.288;2.794;2022-07-22T16:37:51;6.20;;;3.70;;
65092;SDS011;52025;50.288;2.794;2022-07-22T16:40:17;5.90;;;3.60;;
65092;SDS011;52025;50.288;2.794;2022-07-22T16:42:42;6.55;;;3.53;;
65092;SDS011;52025;50.288;2.794;2022-07-22T16:45:07;6.65;;;3.30;;
65092;SDS011;52025;50.288;2.794;2022-07-22T16:47:33;5.90;;;3.20;;
65092;SDS011;52025;50.288;2.794;2022-07-22T16:49:58;7.70;;;4.00;;
65092;SDS011;52025;50.288;2.794;2022-07-22T16:52:24;6.05;;;3.20;;
65092;SDS011;52025;50.288;2.794;2022-07-22T16:54:49;5.57;;;3.08;;
65092;SDS011;52025;50.288;2.794;2022-07-22T16:57:15;7.70;;;3.65;;
65092;SDS011;52025;50.288;2.794;2022-07-22T16:59:40;5.68;;;3.90;;
65092;SDS011;52025;50.288;2.794;2022-07-22T17:02:05;7.03;;;3.53;;
65092;SDS011;52025;50.288;2.794;2022-07-22T17:04:31;7.15;;;4.30;;
65092;SDS011;52025;50.288;2.794;2022-07-22T17:06:56;7.45;;;3.58;;
65092;SDS011;52025;50.288;2.794;2022-07-22T17:09:21;6.70;;;3.65;;
65092;SDS011;52025;50.288;2.794;2022-07-22T17:11:47;8.35;;;4.30;;
65092;SDS011;52025;50.288;2.794;2022-07-22T17:14:15;7.53;;;3.72;;
65092;SDS011;52025;50.288;2.794;2022-07-22T17:16:40;6.75;;;3.42;;
65092;SDS011;52025;50.288;2.794;2022-07-22T17:19:05;7.53;;;3.90;;
65092;SDS011;52025;50.288;2.794;2022-07-22T17:21:31;8.50;;;3.97;;
65092;SDS011;52025;50.288;2.794;2022-07-22T17:23:56;6.43;;;3.28;;
65092;SDS011;52025;50.288;2.794;2022-07-22T17:26:21;6.18;;;2.90;;
65092;SDS011;52025;50.288;2.794;2022-07-22T17:28:47;6.43;;;3.55;;
65092;SDS011;52025;50.288;2.794;2022-07-22T17:31:12;6.68;;;3.20;;
65092;SDS011;52025;50.288;2.794;2022-07-22T17:33:38;6.80;;;3.53;;
65092;SDS011;52025;50.288;2.794;2022-07-22T17:36:04;6.60;;;3.60;;
65092;SDS011;52025;50.288;2.794;2022-07-22T17:38:29;5.32;;;3.20;;
65092;SDS011;52025;50.288;2.794;2022-07-22T17:40:55;6.35;;;3.22;;
65092;SDS011;52025;50.288;2.794;2022-07-22T17:43:20;7.43;;;3.42;;
65092;SDS011;52025;50.288;2.794;2022-07-22T17:45:45;7.00;;;3.40;;
65092;SDS011;52025;50.288;2.794;2022-07-22T17:48:10;5.43;;;3.20;;
65092;SDS011;52025;50.288;2.794;2022-07-22T17:50:36;6.73;;;3.77;;
65092;SDS011;52025;50.288;2.794;2022-07-22T17:53:04;7.03;;;4.15;;
65092;SDS011;52025;50.288;2.794;2022-07-22T17:55:30;9.88;;;6.90;;
65092;SDS011;52025;50.288;2.794;2022-07-22T17:57:55;10.20;;;6.88;;
65092;SDS011;52025;50.288;2.794;2022-07-22T18:00:20;8.70;;;6.53;;
65092;SDS011;52025;50.288;2.794;2022-07-22T18:02:45;7.45;;;5.25;;
65092;SDS011;52025;50.288;2.794;2022-07-22T18:05:11;8.00;;;5.88;;
65092;SDS011;52025;50.288;2.794;2022-07-22T18:07:36;13.52;;;11.38;;
65092;SDS011;52025;50.288;2.794;2022-07-22T18:10:02;14.05;;;10.05;;
65092;SDS011;52025;50.288;2.794;2022-07-22T18:12:27;9.95;;;7.25;;
65092;SDS011;52025;50.288;2.794;2022-07-22T18:14:54;8.02;;;5.30;;
65092;SDS011;52025;50.288;2.794;2022-07-22T18:17:19;7.82;;;3.92;;
65092;SDS011;52025;50.288;2.794;2022-07-22T18:19:44;7.53;;;4.77;;
65092;SDS011;52025;50.288;2.794;2022-07-22T18:22:10;9.30;;;6.33;;
65092;SDS011;52025;50.288;2.794;2022-07-22T18:24:36;8.05;;;5.53;;
65092;SDS011;52025;50.288;2.794;2022-07-22T18:27:01;8.90;;;5.53;;
65092;SDS011;52025;50.288;2.794;2022-07-22T18:29:26;8.68;;;4.35;;
65092;SDS011;52025;50.288;2.794;2022-07-22T18:31:52;7.40;;;4.80;;
65092;SDS011;52025;50.288;2.794;2022-07-22T18:34:17;8.27;;;5.70;;
65092;SDS011;52025;50.288;2.794;2022-07-22T18:36:42;7.80;;;4.60;;
65092;SDS011;52025;50.288;2.794;2022-07-22T18:39:07;8.52;;;4.50;;
65092;SDS011;52025;50.288;2.794;2022-07-22T18:41:33;7.13;;;4.63;;
65092;SDS011;52025;50.288;2.794;2022-07-22T18:43:58;7.00;;;4.35;;
65092;SDS011;52025;50.288;2.794;2022-07-22T18:46:23;7.03;;;4.07;;
65092;SDS011;52025;50.288;2.794;2022-07-22T18:48:49;5.63;;;4.10;;
65092;SDS011;52025;50.288;2.794;2022-07-22T18:51:14;8.90;;;4.60;;
65092;SDS011;52025;50.288;2.794;2022-07-22T18:53:41;9.60;;;5.80;;
65092;SDS011;52025;50.288;2.794;2022-07-22T18:56:07;7.28;;;4.50;;
65092;SDS011;52025;50.288;2.794;2022-07-22T18:58:32;6.53;;;4.15;;
65092;SDS011;52025;50.288;2.794;2022-07-22T19:00:57;6.60;;;4.10;;
65092;SDS011;52025;50.288;2.794;2022-07-22T19:03:22;6.50;;;3.47;;
65092;SDS011;52025;50.288;2.794;2022-07-22T19:05:48;8.27;;;4.13;;
65092;SDS011;52025;50.288;2.794;2022-07-22T19:08:13;7.63;;;3.53;;
65092;SDS011;52025;50.288;2.794;2022-07-22T19:10:38;10.00;;;5.85;;
65092;SDS011;52025;50.288;2.794;2022-07-22T19:13:03;18.60;;;11.38;;
65092;SDS011;52025;50.288;2.794;2022-07-22T19:15:29;13.10;;;8.43;;
65092;SDS011;52025;50.288;2.794;2022-07-22T19:17:54;10.85;;;7.60;;
65092;SDS011;52025;50.288;2.794;2022-07-22T19:20:19;6.68;;;4.38;;
65092;SDS011;52025;50.288;2.794;2022-07-22T19:22:45;8.25;;;4.55;;
65092;SDS011;52025;50.288;2.794;2022-07-22T19:25:11;6.70;;;4.00;;
65092;SDS011;52025;50.288;2.794;2022-07-22T19:27:36;7.82;;;4.40;;
65092;SDS011;52025;50.288;2.794;2022-07-22T19:30:01;6.05;;;3.95;;
65092;SDS011;52025;50.288;2.794;2022-07-22T19:32:27;7.35;;;4.60;;